Time;durP1;ratioP1;P1;durP2;ratioP2;P2;SDS_P1;SDS_P2;PMS_P1;PMS_P2;Temp;Humidity;BMP_temperature;BMP_pressure;BME280_temperature;BME280_humidity;BME280_pressure;Samples;Min_cycle;Max_cycle;Signal;HPM_P1;HPM_P2
2023/01/04 00:02:10;;;;;;;81.72;45.53;;;;;;;8.88;100.00;100071.03;5069045;28;20142;-93
2023/01/04 00:04:36;;;;;;;90.88;47.25;;;;;;;8.98;100.00;100080.75;5069781;28;20052;-94
2023/01/04 00:07:04;;;;;;;92.40;47.17;;;;;;;9.09;100.00;100099.34;5069233;28;20047;-92
2023/01/04 00:09:30;;;;;;;91.28;47.50;;;;;;;9.03;100.00;100094.91;5070099;28;20422;-92
2023/01/04 00:11:58;;;;;;;85.05;45.83;;;;;;;9.08;100.00;100098.44;5070024;28;20051;-93
2023/01/04 00:14:24;;;;;;;85.50;46.50;;;;;;;8.98;100.00;100084.28;5069193;28;20036;-92
2023/01/04 00:16:49;;;;;;;81.28;43.22;;;;;;;9.00;100.00;100082.53;5068272;28;20048;-93
2023/01/04 00:19:15;;;;;;;78.47;43.13;;;;;;;9.08;100.00;100093.13;5069459;28;20131;-93
2023/01/04 00:21:41;;;;;;;88.55;44.53;;;;;;;9.11;100.00;100086.94;5069564;28;20112;-93
2023/01/04 00:24:08;;;;;;;82.85;47.75;;;;;;;9.03;100.00;100082.50;5069211;28;20491;-91
2023/01/04 00:26:34;;;;;;;88.43;45.72;;;;;;;9.07;100.00;100086.06;5068483;28;20072;-93
2023/01/04 00:29:04;;;;;;;77.38;43.78;;;;;;;9.00;100.00;100078.97;5068309;28;20037;-93
2023/01/04 00:31:31;;;;;;;84.18;45.50;;;;;;;8.99;100.00;100066.59;5056183;28;20387;-91
2023/01/04 00:33:59;;;;;;;86.80;46.40;;;;;;;8.96;100.00;100063.97;5054762;28;20033;-93
2023/01/04 00:36:26;;;;;;;83.38;47.72;;;;;;;8.94;100.00;100063.94;5055996;28;20456;-94
2023/01/04 00:41:53;;;;;;;87.88;46.92;;;;;;;9.15;100.00;100088.69;5112390;27;20377;-93
2023/01/04 00:44:20;;;;;;;83.20;46.45;;;;;;;9.07;100.00;100079.88;5111376;28;20089;-92
2023/01/04 00:46:47;;;;;;;79.53;44.20;;;;;;;9.12;100.00;100092.25;5110453;28;20501;-92
2023/01/04 00:49:13;;;;;;;79.13;42.72;;;;;;;8.90;100.00;100061.31;5111471;28;20047;-93
2023/01/04 00:51:40;;;;;;;83.82;47.22;;;;;;;9.15;100.00;100104.63;5110865;28;20089;-93
2023/01/04 00:54:11;;;;;;;88.38;45.30;;;;;;;9.01;100.00;100071.00;5110202;28;20077;-94
2023/01/04 00:56:36;;;;;;;83.13;45.97;;;;;;;9.18;100.00;100104.66;5107941;28;20044;-93
2023/01/04 00:59:04;;;;;;;90.32;48.65;;;;;;;9.18;100.00;100099.34;5109921;28;20092;-93
2023/01/04 01:01:32;;;;;;;96.30;48.63;;;;;;;9.08;100.00;100082.50;5110189;28;20127;-93
2023/01/04 01:04:00;;;;;;;95.90;49.67;;;;;;;9.07;100.00;100077.22;5110257;28;20465;-93
2023/01/04 01:06:27;;;;;;;95.03;51.92;;;;;;;9.04;100.00;100075.44;5110713;28;20067;-92
2023/01/04 01:08:53;;;;;;;102.25;52.15;;;;;;;9.15;100.00;100096.66;5109187;28;20447;-92
2023/01/04 01:11:20;;;;;;;98.72;52.80;;;;;;;9.01;100.00;100078.09;5109520;27;20017;-92
2023/01/04 01:13:46;;;;;;;100.90;53.15;;;;;;;9.14;100.00;100101.09;5112991;28;20562;-92
2023/01/04 01:16:15;;;;;;;108.03;55.28;;;;;;;8.98;100.00;100076.34;5108857;28;20040;-92
2023/01/04 01:18:43;;;;;;;97.53;52.97;;;;;;;9.01;100.00;100086.94;5109553;28;20058;-94
2023/01/04 01:21:11;;;;;;;102.35;51.97;;;;;;;8.99;100.00;100082.50;5106313;28;20032;-92
2023/01/04 01:23:37;;;;;;;105.97;55.20;;;;;;;8.98;100.00;100086.94;5110171;28;20050;-92
2023/01/04 01:26:05;;;;;;;100.90;52.50;;;;;;;9.09;100.00;100104.66;5110377;28;20043;-95
2023/01/04 01:28:32;;;;;;;99.03;52.65;;;;;;;8.99;100.00;100099.31;5110332;28;20493;-92
2023/01/04 01:31:03;;;;;;;102.30;51.72;;;;;;;9.12;100.00;100109.94;5111783;28;20045;-93
2023/01/04 01:33:30;;;;;;;95.63;51.45;;;;;;;9.11;100.00;100109.06;5109148;28;20050;-93
2023/01/04 01:35:59;;;;;;;91.50;47.58;;;;;;;9.00;100.00;100089.56;5108785;28;20036;-92
2023/01/04 01:38:25;;;;;;;94.53;48.50;;;;;;;9.09;100.00;100097.56;5110297;28;20082;-93
2023/01/04 01:40:51;;;;;;;83.03;46.78;;;;;;;9.11;100.00;100098.44;5110231;28;20052;-93
2023/01/04 01:43:18;;;;;;;89.97;48.58;;;;;;;9.07;100.00;100096.69;5110103;28;20669;-93
2023/01/04 01:45:46;;;;;;;96.63;49.70;;;;;;;8.93;100.00;100070.13;5108952;28;20054;-93
2023/01/04 01:48:15;;;;;;;94.70;51.88;;;;;;;8.99;100.00;100082.50;5109590;28;20066;-92
2023/01/04 01:50:48;;;;;;;97.50;50.45;;;;;;;9.10;100.00;100101.09;5110580;28;20040;-92
2023/01/04 01:53:14;;;;;;;89.97;49.38;;;;;;;9.05;100.00;100093.13;5096148;28;20051;-93
2023/01/04 01:55:43;;;;;;;91.53;49.80;;;;;;;9.03;100.00;100094.91;5096513;28;20034;-93
2023/01/04 01:58:17;;;;;;;87.18;50.10;;;;;;;9.08;100.00;100095.78;5096298;28;20067;-92
2023/01/04 02:00:42;;;;;;;93.60;50.17;;;;;;;9.03;100.00;100089.59;5094407;28;20043;-92
2023/01/04 02:03:14;;;;;;;88.05;49.80;;;;;;;9.03;100.00;100084.28;5095194;28;20066;-92
2023/01/04 02:05:44;;;;;;;98.50;51.17;;;;;;;9.06;100.00;100092.25;5094413;28;20044;-93
2023/01/04 02:08:10;;;;;;;;;;;;;;;9.15;100.00;100109.94;5095748;28;20044;-92
2023/01/04 02:10:36;;;;;;;88.75;48.88;;;;;;;9.14;100.00;100113.50;5097519;28;19920;-93
2023/01/04 02:13:07;;;;;;;91.40;50.35;;;;;;;9.05;100.00;100099.31;5095991;28;20085;-92
2023/01/04 02:15:45;;;;;;;86.30;47.25;;;;;;;9.12;100.00;100102.84;5094530;28;20441;-93
2023/01/04 02:18:17;;;;;;;88.95;47.55;;;;;;;9.10;100.00;100096.66;5095576;28;20043;-93
2023/01/04 02:20:49;;;;;;;87.05;49.30;;;;;;;9.06;100.00;100084.28;5094201;28;20040;-92
2023/01/04 02:23:46;;;;;;;79.70;45.78;;;;;;;9.13;100.00;100086.06;5094864;28;20071;-92
2023/01/04 02:26:48;;;;;;;83.90;44.95;;;;;;;9.16;100.00;100093.13;5095462;28;20044;-92
2023/01/04 02:29:46;;;;;;;81.07;45.90;;;;;;;9.13;100.00;100094.03;5093755;28;20043;-92
2023/01/04 02:32:19;;;;;;;89.25;46.90;;;;;;;9.17;100.00;100098.47;5094061;28;20036;-93
2023/01/04 02:34:57;;;;;;;91.10;46.72;;;;;;;9.11;100.00;100093.16;5097965;28;20036;-92
2023/01/04 02:37:37;;;;;;;81.72;43.78;;;;;;;9.12;100.00;100094.91;5095537;28;20040;-92
2023/01/04 02:40:15;;;;;;;75.80;41.08;;;;;;;9.19;100.00;100095.78;5094129;28;20028;-93
2023/01/04 02:45:53;;;;;;;86.05;44.08;;;;;;;9.11;100.00;100087.84;5102176;27;20375;-93
2023/01/04 02:51:29;;;;;;;78.38;41.88;;;;;;;9.13;100.00;100082.50;5107705;27;20393;-93
2023/01/04 02:53:57;;;;;;;85.53;46.72;;;;;;;9.17;100.00;100090.50;5090012;28;20044;-93
2023/01/04 02:56:39;;;;;;;91.35;49.13;;;;;;;9.10;100.00;100072.78;5090265;28;20067;-92
2023/01/04 02:59:26;;;;;;;86.45;47.05;;;;;;;9.13;100.00;100085.16;5090977;28;20119;-92
2023/01/04 03:08:18;;;;;;;81.68;45.35;;;;;;;9.05;100.00;100080.75;5091806;27;20358;-92
2023/01/04 03:10:49;;;;;;;87.93;46.47;;;;;;;9.02;100.00;100069.25;5090385;28;20048;-92
2023/01/04 03:13:18;;;;;;;76.40;44.90;;;;;;;9.09;100.00;100081.66;5090044;28;20094;-91
2023/01/04 03:15:50;;;;;;;80.85;44.10;;;;;;;9.05;100.00;100086.06;5089743;28;20048;-93
2023/01/04 03:18:19;;;;;;;84.75;46.97;;;;;;;8.93;100.00;100063.94;5090188;28;20032;-92
2023/01/04 03:20:47;;;;;;;94.85;49.60;;;;;;;8.89;100.00;100049.81;5090702;28;20036;-93
2023/01/04 03:35:44;;;;;;;107.40;54.22;;;;;;;8.92;100.00;100054.22;5116405;27;20390;-93
2023/01/04 03:50:40;;;;;;;123.03;54.65;;;;;;;8.86;100.00;100055.09;5133591;27;20388;-91
2023/01/04 03:53:07;;;;;;;127.75;57.22;;;;;;;8.82;100.00;100051.53;5119048;28;20039;-91
2023/01/04 03:55:34;;;;;;;120.25;58.75;;;;;;;8.79;100.00;100043.59;5119761;28;20047;-93
2023/01/04 03:58:00;;;;;;;177.80;60.50;;;;;;;8.75;100.00;100033.88;5117200;28;20039;-92
2023/01/04 04:00:26;;;;;;;184.45;62.30;;;;;;;8.65;100.00;100013.53;5116535;28;20378;-92
2023/01/04 04:02:52;;;;;;;223.48;60.95;;;;;;;8.73;100.00;100027.69;5117954;28;20036;-91
2023/01/04 04:08:27;;;;;;;227.20;60.42;;;;;;;8.67;100.00;100019.72;5109857;27;1506884;-92
2023/01/04 04:10:54;;;;;;;228.32;61.38;;;;;;;8.59;100.00;100018.84;5137147;27;20047;-92
2023/01/04 04:13:20;;;;;;;210.32;58.55;;;;;;;8.46;100.00;100001.13;5139212;27;20035;-91
2023/01/04 04:15:47;;;;;;;224.52;60.28;;;;;;;8.59;100.00;100026.81;5142030;27;20030;-93
2023/01/04 04:18:12;;;;;;;212.68;60.30;;;;;;;8.57;100.00;100029.44;5144500;27;20377;-92
2023/01/04 04:20:38;;;;;;;267.90;60.13;;;;;;;8.49;100.00;100007.34;5141734;27;20095;-92
2023/01/04 04:23:05;;;;;;;208.40;57.75;;;;;;;8.49;100.00;100022.38;5141242;27;20545;-93
2023/01/04 04:25:32;;;;;;;160.80;57.00;;;;;;;8.47;100.00;100025.00;5145226;27;20129;-92
2023/01/04 04:27:58;;;;;;;215.48;56.90;;;;;;;8.48;100.00;100031.19;5137783;27;20035;-93
2023/01/04 04:30:23;;;;;;;169.63;56.97;;;;;;;8.35;100.00;100028.50;5136818;27;20134;-91
2023/01/04 04:32:49;;;;;;;119.80;52.17;;;;;;;8.18;100.00;100009.03;5138902;27;20492;-92
2023/01/04 04:35:15;;;;;;;114.50;55.15;;;;;;;8.43;100.00;100039.13;5144874;27;20053;-92
2023/01/04 04:37:41;;;;;;;198.85;57.15;;;;;;;8.41;100.00;100035.59;5139592;27;20034;-93
2023/01/04 04:41:37;;;;;;;224.65;54.97;;;;;;;8.34;100.00;100026.72;5140361;27;20060;-92
2023/01/04 04:42:55;;;;;;;193.25;55.80;;;;;;;8.23;100.00;100016.09;5123550;27;20038;-93
2023/01/04 04:45:21;;;;;;;228.10;54.40;;;;;;;8.22;100.00;100032.00;5137197;27;20462;-92
2023/01/04 04:47:47;;;;;;;153.00;51.08;;;;;;;8.19;100.00;100030.19;5140916;27;20107;-93
2023/01/04 04:50:13;;;;;;;128.02;52.13;;;;;;;8.19;100.00;100030.19;5139049;27;20035;-91
2023/01/04 04:52:40;;;;;;;98.05;50.63;;;;;;;8.30;100.00;100032.88;5138335;27;20050;-93
2023/01/04 04:55:07;;;;;;;98.78;50.67;;;;;;;8.32;100.00;100036.41;5139558;27;20039;-93
2023/01/04 04:57:33;;;;;;;101.60;50.47;;;;;;;8.33;100.00;100040.84;5138322;27;20395;-93
2023/01/04 05:00:00;;;;;;;93.88;51.05;;;;;;;8.23;100.00;100016.09;5139777;27;20130;-92
2023/01/04 05:02:26;;;;;;;89.80;51.00;;;;;;;8.38;100.00;100040.88;5139415;27;20046;-93
2023/01/04 05:04:51;;;;;;;91.47;51.42;;;;;;;8.39;100.00;100032.00;5141626;27;20456;-93
2023/01/04 05:07:17;;;;;;;85.25;49.67;;;;;;;8.46;100.00;100032.94;5142202;27;20082;-93
2023/01/04 05:09:43;;;;;;;94.35;52.38;;;;;;;8.46;100.00;100028.56;5141551;27;20043;-93
2023/01/04 05:15:11;;;;;;;109.68;58.00;;;;;;;8.49;100.00;100039.16;5111413;27;20734;-92
2023/01/04 05:17:37;;;;;;;125.22;61.03;;;;;;;8.56;100.00;100042.69;5110928;28;20044;-92
2023/01/04 05:20:04;;;;;;;117.35;61.17;;;;;;;8.56;100.00;100043.56;5111262;28;20040;-94
2023/01/04 05:22:29;;;;;;;108.50;58.17;;;;;;;8.63;100.00;100049.75;5110570;28;20063;-93
2023/01/04 05:24:55;;;;;;;113.05;57.33;;;;;;;8.64;100.00;100038.28;5110744;28;20508;-93
2023/01/04 05:27:21;;;;;;;107.88;57.90;;;;;;;8.62;100.00;100040.06;5111418;28;20047;-92
2023/01/04 05:32:47;;;;;;;112.80;55.95;;;;;;;8.72;100.00;100049.78;5108070;27;20378;-93
2023/01/04 05:35:13;;;;;;;116.68;56.55;;;;;;;8.63;100.00;100041.81;5098844;28;20087;-92
2023/01/04 05:37:39;;;;;;;125.63;61.03;;;;;;;8.55;100.00;100030.31;5098569;28;20533;-92
2023/01/04 05:40:05;;;;;;;113.80;56.80;;;;;;;8.74;100.00;100058.63;5099700;28;20477;-93
2023/01/04 05:42:31;;;;;;;105.40;54.47;;;;;;;8.71;100.00;100055.97;5103250;28;20035;-92
2023/01/04 05:44:58;;;;;;;113.07;56.70;;;;;;;8.61;100.00;100040.94;5094112;28;20085;-93
2023/01/04 05:47:24;;;;;;;106.30;56.85;;;;;;;8.59;100.00;100034.75;5098971;28;20424;-92
2023/01/04 05:49:52;;;;;;;114.20;56.97;;;;;;;8.72;100.00;100065.72;5099011;28;20058;-92
2023/01/04 05:52:18;;;;;;;109.28;52.67;;;;;;;8.66;100.00;100059.50;5093648;28;20032;-93
2023/01/04 05:54:44;;;;;;;113.72;55.53;;;;;;;8.79;100.00;100071.91;5098654;28;20050;-93
2023/01/04 05:57:10;;;;;;;104.95;51.75;;;;;;;8.62;100.00;100050.66;5096080;28;20043;-94
2023/01/04 05:59:36;;;;;;;105.80;54.15;;;;;;;8.56;100.00;100042.69;5098066;28;20067;-92
2023/01/04 06:02:02;;;;;;;114.00;53.05;;;;;;;8.59;100.00;100043.59;5093770;28;20620;-93
2023/01/04 06:04:28;;;;;;;108.00;51.65;;;;;;;8.74;100.00;100085.16;5096633;28;20044;-93
2023/01/04 06:06:55;;;;;;;105.38;51.72;;;;;;;8.75;100.00;100081.59;5094763;28;20131;-93
2023/01/04 06:09:25;;;;;;;106.53;53.25;;;;;;;8.68;100.00;100061.28;5097998;28;20097;-92
2023/01/04 06:11:51;;;;;;;122.68;52.70;;;;;;;8.57;100.00;100042.69;5097850;28;20089;-92
2023/01/04 06:14:17;;;;;;;116.10;52.55;;;;;;;8.75;100.00;100080.72;5096169;28;20036;-93
2023/01/04 06:16:43;;;;;;;114.35;51.28;;;;;;;8.57;100.00;100053.31;5099067;28;20047;-93
2023/01/04 06:19:09;;;;;;;129.32;54.60;;;;;;;8.66;100.00;100068.34;5099182;28;20050;-93
2023/01/04 06:21:34;;;;;;;107.85;51.38;;;;;;;8.79;100.00;100090.47;5097784;28;20032;-92
2023/01/04 06:24:13;;;;;;;120.28;50.85;;;;;;;8.79;100.00;100107.25;5093555;28;20670;-92
2023/01/04 06:26:39;;;;;;;112.38;51.70;;;;;;;8.66;100.00;100091.34;5094585;28;20431;-92
2023/01/04 06:29:05;;;;;;;131.57;52.95;;;;;;;8.67;100.00;100087.78;5099811;28;20037;-91
2023/01/04 06:31:32;;;;;;;138.02;52.17;;;;;;;8.70;100.00;100098.41;5092192;28;20493;-92
2023/01/04 06:33:59;;;;;;;121.40;50.67;;;;;;;8.57;100.00;100090.44;5095534;28;20048;-92
2023/01/04 06:36:25;;;;;;;130.57;51.47;;;;;;;8.55;100.00;100088.66;5095768;28;20044;-93
2023/01/04 06:38:51;;;;;;;118.57;51.17;;;;;;;8.64;100.00;100099.28;5101220;28;20123;-92
2023/01/04 06:41:19;;;;;;;125.22;50.78;;;;;;;8.43;100.00;100076.25;5095910;28;20033;-93
2023/01/04 06:43:45;;;;;;;113.47;52.60;;;;;;;8.61;100.00;100116.06;5084012;28;20093;-92
2023/01/04 06:46:11;;;;;;;104.15;51.35;;;;;;;8.55;100.00;100101.91;5078914;28;20052;-92
2023/01/04 06:48:36;;;;;;;120.60;52.15;;;;;;;8.41;100.00;100078.00;5086035;28;20056;-92
2023/01/04 06:51:02;;;;;;;117.05;51.15;;;;;;;8.50;100.00;100093.03;5084838;28;20037;-92
2023/01/04 06:53:28;;;;;;;121.32;52.05;;;;;;;8.50;100.00;100093.03;5079797;28;20040;-92
2023/01/04 06:55:54;;;;;;;111.13;50.17;;;;;;;8.33;100.00;100080.63;5081973;28;20135;-94
2023/01/04 06:58:21;;;;;;;112.20;47.95;;;;;;;8.52;100.00;100107.19;5087337;28;20048;-93
2023/01/04 07:00:49;;;;;;;95.78;47.65;;;;;;;8.34;100.00;100090.31;5081550;28;20098;-92
2023/01/04 07:03:15;;;;;;;89.63;46.20;;;;;;;8.46;100.00;100108.06;5081337;28;20064;-93
2023/01/04 07:05:41;;;;;;;108.32;48.15;;;;;;;8.51;100.00;100102.78;5081550;28;20075;-94
2023/01/04 07:08:07;;;;;;;92.43;45.95;;;;;;;8.38;100.00;100092.09;5080564;28;20105;-94
2023/01/04 07:10:33;;;;;;;104.95;49.85;;;;;;;8.28;100.00;100084.13;5082375;28;20505;-94
2023/01/04 07:12:59;;;;;;;97.85;49.20;;;;;;;8.41;100.00;100110.72;5086279;28;20127;-91
2023/01/04 07:15:26;;;;;;;95.20;49.40;;;;;;;8.41;100.00;100126.63;5081004;28;20419;-93
2023/01/04 07:17:52;;;;;;;95.50;49.28;;;;;;;8.28;100.00;100105.31;5086619;28;20044;-93
2023/01/04 07:20:18;;;;;;;90.75;47.78;;;;;;;8.38;100.00;100133.63;5080773;28;20504;-93
2023/01/04 07:22:44;;;;;;;90.05;47.90;;;;;;;8.26;100.00;100115.91;5084506;28;20047;-93
2023/01/04 07:25:09;;;;;;;81.75;45.92;;;;;;;8.31;100.00;100129.19;5081318;28;20048;-92
2023/01/04 07:27:36;;;;;;;87.78;46.70;;;;;;;8.29;100.00;100130.97;5087551;28;20066;-92
2023/01/04 07:30:03;;;;;;;84.80;46.60;;;;;;;8.20;100.00;100127.38;5079856;28;20040;-93
2023/01/04 07:32:31;;;;;;;97.55;51.22;;;;;;;8.25;100.00;100115.91;5084729;28;20090;-92
2023/01/04 07:34:57;;;;;;;97.65;52.25;;;;;;;8.35;100.00;100131.88;5080734;28;20119;-92
2023/01/04 07:37:23;;;;;;;111.18;54.67;;;;;;;8.41;100.00;100126.63;5080311;28;20032;-92
2023/01/04 07:39:48;;;;;;;118.88;57.80;;;;;;;8.40;100.00;100108.94;5080272;28;20040;-93
2023/01/04 07:42:15;;;;;;;110.50;59.83;;;;;;;8.56;100.00;100124.88;5079951;28;20037;-92
2023/01/04 07:44:40;;;;;;;208.13;57.95;;;;;;;8.53;100.00;100107.19;5077622;28;20090;-93
2023/01/04 07:47:06;;;;;;;215.60;56.10;;;;;;;8.73;100.00;100132.88;5078009;28;20044;-92
2023/01/04 07:49:33;;;;;;;174.88;52.80;;;;;;;8.69;100.00;100118.72;5075730;28;20048;-92
2023/01/04 07:51:59;;;;;;;209.63;56.45;;;;;;;8.78;100.00;100139.06;5083447;28;20386;-93
2023/01/04 07:54:25;;;;;;;232.48;52.47;;;;;;;8.69;100.00;100124.03;5078155;28;20041;-93
2023/01/04 07:56:51;;;;;;;143.75;49.47;;;;;;;8.73;100.00;100139.06;5086332;28;20040;-92
2023/01/04 07:59:19;;;;;;;97.60;47.05;;;;;;;8.83;100.00;100154.13;5085837;28;20139;-93
2023/01/04 08:01:46;;;;;;;193.38;50.40;;;;;;;8.82;100.00;100162.94;5078906;28;20434;-93
2023/01/04 08:04:14;;;;;;;231.60;53.08;;;;;;;8.73;100.00;100148.78;5084720;28;20048;-93
2023/01/04 08:06:45;;;;;;;149.80;50.40;;;;;;;8.78;100.00;100158.53;5079483;28;20505;-91
2023/01/04 08:09:11;;;;;;;159.00;51.45;;;;;;;8.84;100.00;100163.84;5075396;28;20040;-93
2023/01/04 08:11:37;;;;;;;158.48;52.35;;;;;;;8.80;100.00;100151.47;5082037;28;20044;-93
2023/01/04 08:14:03;;;;;;;137.63;47.63;;;;;;;8.77;100.00;100148.81;5078246;28;20064;-93
2023/01/04 08:16:31;;;;;;;232.07;48.60;;;;;;;8.78;100.00;100153.25;5078001;28;20060;-92
2023/01/04 08:18:58;;;;;;;259.65;51.88;;;;;;;8.60;100.00;100146.09;5076804;28;20036;-91
2023/01/04 08:21:25;;;;;;;321.48;50.45;;;;;;;8.43;100.00;100154.00;5077130;28;20033;-91
2023/01/04 08:23:53;;;;;;;184.77;47.97;;;;;;;8.43;100.00;100169.03;5079786;28;20051;-92
2023/01/04 08:26:21;;;;;;;107.07;46.60;;;;;;;8.58;100.00;100177.03;5078260;28;20060;-91
2023/01/04 08:28:47;;;;;;;116.10;46.60;;;;;;;8.63;100.00;100151.44;5080709;28;20036;-91
2023/01/04 08:31:15;;;;;;;137.05;49.60;;;;;;;8.87;100.00;100167.38;5082113;28;20528;-93
2023/01/04 08:33:42;;;;;;;190.38;49.08;;;;;;;8.93;100.00;100178.88;5079308;28;20051;-91
2023/01/04 08:36:11;;;;;;;183.20;46.10;;;;;;;8.95;100.00;100173.59;5082142;28;20097;-92
2023/01/04 08:38:37;;;;;;;202.37;47.70;;;;;;;9.03;100.00;100180.69;5076782;28;20074;-92
2023/01/04 08:41:04;;;;;;;222.80;48.22;;;;;;;8.94;100.00;100169.19;5079203;28;20089;-93
2023/01/04 08:43:30;;;;;;;162.77;50.53;;;;;;;8.98;100.00;100176.28;5083535;28;20074;-92
2023/01/04 08:45:56;;;;;;;199.32;46.10;;;;;;;8.98;100.00;100169.19;5078175;28;20526;-91
2023/01/04 08:48:22;;;;;;;132.57;44.50;;;;;;;9.03;100.00;100159.47;5082133;28;20243;-93
2023/01/04 08:50:48;;;;;;;213.60;44.75;;;;;;;9.23;100.00;100170.09;5079278;28;20062;-92
2023/01/04 08:53:14;;;;;;;195.70;45.67;;;;;;;9.28;100.00;100177.19;5081772;28;20032;-92
2023/01/04 08:55:40;;;;;;;173.30;45.45;;;;;;;9.09;100.00;100160.38;5081209;28;20096;-92
2023/01/04 08:58:07;;;;;;;152.73;44.78;;;;;;;9.25;100.00;100184.25;5077616;28;20052;-92
2023/01/04 09:00:33;;;;;;;186.63;44.67;;;;;;;9.21;100.00;100166.56;5077843;28;20054;-92
2023/01/04 09:02:59;;;;;;;170.85;44.97;;;;;;;9.25;100.00;100176.28;5081203;28;20394;-92
2023/01/04 09:05:24;;;;;;;161.80;43.35;;;;;;;9.32;100.00;100168.34;5085209;28;20093;-92
2023/01/04 09:07:51;;;;;;;99.30;43.55;;;;;;;9.46;100.00;100169.25;5080528;28;20490;-91
2023/01/04 09:10:17;;;;;;;158.45;44.10;;;;;;;9.52;100.00;100169.25;5082391;28;20048;-91
2023/01/04 09:12:44;;;;;;;129.23;45.42;;;;;;;9.35;100.00;100137.38;5078466;28;20502;-92
2023/01/04 09:15:11;;;;;;;111.93;46.42;;;;;;;9.69;100.00;100177.19;5078289;28;20060;-91
2023/01/04 09:17:37;;;;;;;129.57;46.10;;;;;;;9.75;100.00;100163.88;5085284;28;20555;-92
2023/01/04 09:20:04;;;;;;;135.25;47.42;;;;;;;9.86;100.00;100174.50;5077915;28;20044;-93
2023/01/04 09:22:30;;;;;;;133.38;46.00;;;;;;;9.62;100.00;100165.66;5084636;28;20036;-92
2023/01/04 09:24:56;;;;;;;117.70;43.92;;;;;;;9.45;100.00;100148.88;5078944;28;20044;-92
2023/01/04 09:27:22;;;;;;;97.95;44.25;;;;;;;9.66;100.00;100177.19;5079285;28;20032;-93
2023/01/04 09:29:47;;;;;;;90.85;44.67;;;;;;;9.76;100.00;100176.31;5078057;28;20029;-92
2023/01/04 09:32:15;;;;;;;91.32;45.80;;;;;;;9.78;100.00;100145.31;5075476;28;20045;-93
2023/01/04 09:34:41;;;;;;;92.50;44.33;;;;;;;10.04;100.00;100169.16;5077022;28;20048;-92
2023/01/04 09:37:07;;;;;;;87.53;43.97;;;;;;;9.86;100.00;100153.25;5080174;28;20028;-93
2023/01/04 09:39:33;;;;;;;84.13;44.63;;;;;;;9.87;100.00;100147.06;5079302;28;20055;-94
2023/01/04 09:42:02;;;;;;;95.15;43.05;;;;;;;9.95;100.00;100166.50;5076536;28;20048;-92
2023/01/04 09:44:32;;;;;;;;;;;;;;;10.09;100.00;100185.09;5078237;28;20036;-93
2023/01/04 09:47:03;;;;;;;90.03;43.72;;;;;;;10.20;100.00;100185.06;5078434;28;19916;-92
2023/01/04 09:49:36;;;;;;;85.38;41.85;;;;;;;10.22;100.00;100164.69;5079246;28;20048;-93
2023/01/04 09:52:09;;;;;;;82.15;41.25;;;;;;;10.12;100.00;100150.53;5079394;28;20088;-93
2023/01/04 09:54:42;;;;;;;83.57;39.80;;;;;;;10.33;100.00;100167.34;5079297;28;20093;-93
2023/01/04 09:57:20;;;;;;;85.90;42.42;;;;;;;10.44;100.00;100160.19;5076515;28;20036;-92
2023/01/04 09:59:48;;;;;;;82.95;41.92;;;;;;;10.45;100.00;100135.34;5076652;28;20394;-93
2023/01/04 10:02:21;;;;;;;88.35;41.17;;;;;;;10.59;100.00;100152.16;5076295;28;20039;-91
2023/01/04 10:04:50;;;;;;;76.68;37.55;;;;;;;10.26;100.00;100132.75;5078618;28;20039;-92
2023/01/04 10:07:20;;;;;;;76.93;37.65;;;;;;;10.51;100.00;100145.97;5075790;28;20052;-91
2023/01/04 10:09:46;;;;;;;84.50;38.45;;;;;;;10.57;100.00;100148.59;5082581;28;20123;-92
2023/01/04 10:12:31;;;;;;;77.22;36.40;;;;;;;10.51;100.00;100138.00;5077923;28;20040;-92
2023/01/04 10:15:10;;;;;;;77.75;38.83;;;;;;;10.40;100.00;100138.03;5077689;28;20120;-92
2023/01/04 10:17:53;;;;;;;88.30;42.35;;;;;;;10.20;100.00;100116.81;5075138;28;20064;-93
2023/01/04 10:21:00;;;;;;;81.03;38.58;;;;;;;10.45;100.00;100133.59;5078915;28;20218;-93
2023/01/04 10:23:42;;;;;;;90.32;41.55;;;;;;;10.60;100.00;100134.41;4987755;28;20572;-93
2023/01/04 10:26:12;;;;;;;72.70;39.15;;;;;;;10.61;100.00;100104.25;4987192;28;20038;-94
2023/01/04 10:28:52;;;;;;;80.40;41.05;;;;;;;10.65;100.00;100096.25;4986344;28;20038;-93
2023/01/04 10:31:25;;;;;;;90.95;40.92;;;;;;;10.58;100.00;100106.94;4987113;28;20162;-93
2023/01/04 10:33:58;;;;;;;81.95;40.70;;;;;;;10.69;100.00;100127.28;4986199;28;20057;-93
2023/01/04 10:36:30;;;;;;;86.93;41.83;;;;;;;10.63;100.00;100113.13;4985251;28;20496;-92
2023/01/04 10:38:59;;;;;;;88.60;39.78;;;;;;;10.67;100.00;100118.41;4988195;28;20074;-93
2023/01/04 10:41:30;;;;;;;76.88;37.85;;;;;;;10.61;100.00;100120.22;4985413;28;20372;-93
2023/01/04 10:44:06;;;;;;;82.88;36.65;;;;;;;10.57;100.00;100113.16;4989781;28;20038;-94
2023/01/04 10:46:39;;;;;;;84.95;40.63;;;;;;;10.36;100.00;100080.44;4985221;28;20043;-93
2023/01/04 10:49:09;;;;;;;90.20;43.08;;;;;;;10.53;100.00;100104.28;4984456;28;20050;-94
2023/01/04 10:51:42;;;;;;;79.60;40.53;;;;;;;10.38;100.00;100068.03;4990099;28;20553;-92
2023/01/04 10:54:15;;;;;;;83.43;41.97;;;;;;;10.55;100.00;100091.00;5000983;28;20582;-93
2023/01/04 10:56:47;;;;;;;81.05;40.05;;;;;;;10.42;100.00;100064.47;4985524;28;20047;-93
2023/01/04 10:59:19;;;;;;;83.15;40.45;;;;;;;10.56;100.00;100072.38;5013804;28;20052;-94
2023/01/04 11:01:49;;;;;;;78.30;40.08;;;;;;;10.60;100.00;100076.75;5084100;28;20033;-93
2023/01/04 11:04:20;;;;;;;80.75;42.28;;;;;;;10.61;100.00;100056.38;5082130;28;20056;-92
2023/01/04 11:06:51;;;;;;;86.47;43.80;;;;;;;10.91;100.00;100089.88;5080170;28;20036;-92
2023/01/04 11:09:22;;;;;;;84.30;41.13;;;;;;;10.92;100.00;100078.31;5080806;28;20036;-93
2023/01/04 11:11:49;;;;;;;82.50;43.15;;;;;;;10.89;100.00;100065.06;5077437;28;20462;-93
2023/01/04 11:14:16;;;;;;;81.93;41.60;;;;;;;10.71;100.00;100051.88;5080782;28;20054;-93
2023/01/04 11:16:45;;;;;;;80.75;43.05;;;;;;;10.84;100.00;100054.44;5083155;28;20576;-93
2023/01/04 11:19:11;;;;;;;88.90;41.47;;;;;;;10.93;100.00;100061.47;5081506;28;20047;-92
2023/01/04 11:21:42;;;;;;;78.80;40.92;;;;;;;10.96;100.00;100056.13;5079083;28;20032;-92
2023/01/04 11:24:12;;;;;;;82.28;39.28;;;;;;;10.97;100.00;100057.88;5082497;28;20049;-92
2023/01/04 11:26:42;;;;;;;75.43;39.28;;;;;;;10.98;100.00;100054.31;5083563;28;20418;-92
2023/01/04 11:29:25;;;;;;;81.03;39.42;;;;;;;10.99;100.00;100049.88;5079782;28;20039;-93
2023/01/04 11:31:55;;;;;;;74.82;38.58;;;;;;;11.10;100.00;100042.69;5077762;28;20044;-94
2023/01/04 11:34:43;;;;;;;72.07;37.63;;;;;;;11.01;100.00;100037.44;5087861;28;20043;-94
2023/01/04 11:37:24;;;;;;;77.07;39.43;;;;;;;10.73;100.00;100032.34;5089153;28;20491;-94
2023/01/04 11:39:51;;;;;;;80.68;39.15;;;;;;;10.71;100.00;100023.47;5079517;28;20045;-94
2023/01/04 11:42:20;;;;;;;89.05;42.08;;;;;;;10.87;100.00;100057.06;5085899;28;20486;-94
2023/01/04 11:44:58;;;;;;;88.90;43.60;;;;;;;10.56;100.00;100004.97;5079128;28;20087;-92
2023/01/04 11:47:27;;;;;;;91.45;46.13;;;;;;;10.82;100.00;100047.34;5080336;28;20516;-93
2023/01/04 11:49:53;;;;;;;89.47;42.28;;;;;;;10.83;100.00;100042.03;5077093;28;20071;-92
2023/01/04 11:52:30;;;;;;;83.22;41.35;;;;;;;10.72;100.00;100017.28;5086266;28;20036;-93
2023/01/04 11:55:21;;;;;;;85.03;41.00;;;;;;;10.70;100.00;100013.75;5078638;28;20374;-93
2023/01/04 11:57:57;;;;;;;79.20;39.58;;;;;;;10.71;100.00;100012.84;5075091;28;20048;-92
2023/01/04 12:00:24;;;;;;;77.38;37.83;;;;;;;10.80;100.00;100015.44;5084375;28;20093;-93
2023/01/04 12:02:50;;;;;;;80.40;38.63;;;;;;;10.78;100.00;100025.22;5082760;28;20074;-92